createdAt,value
2023-04-12T00:02:06.617Z,12.77
2023-04-12T00:04:36.415Z,9.07
2023-04-12T00:07:06.124Z,7.47
2023-04-12T00:09:36.489Z,7.87
2023-04-12T00:12:06.347Z,8.63
2023-04-12T00:14:34.511Z,10.10
2023-04-12T00:17:02.645Z,8.23
2023-04-12T00:19:31.240Z,6.97
2023-04-12T00:22:00.905Z,8.47
2023-04-12T00:24:29.026Z,6.83
2023-04-12T00:26:57.092Z,7.47
2023-04-12T00:29:25.141Z,7.10
2023-04-12T00:31:53.799Z,6.53
2023-04-12T00:34:21.845Z,8.03
2023-04-12T00:36:50.013Z,7.27
2023-04-12T00:39:19.417Z,7.13
2023-04-12T00:41:47.394Z,7.27
2023-04-12T00:44:18.320Z,7.20
2023-04-12T00:46:46.829Z,7.63
2023-04-12T00:49:15.810Z,9.47
2023-04-12T00:51:43.919Z,9.30
2023-04-12T00:54:12.485Z,8.00
2023-04-12T00:56:44.973Z,7.43
2023-04-12T00:59:13.095Z,7.93
2023-04-12T01:01:42.117Z,8.50
2023-04-12T01:04:14.105Z,8.00
2023-04-12T01:07:01.704Z,12.20
2023-04-12T01:09:43.337Z,8.70
2023-04-12T01:12:22.063Z,8.00
2023-04-12T01:14:56.505Z,8.20
2023-04-12T01:17:30.002Z,8.17
2023-04-12T01:20:13.472Z,7.40
2023-04-12T01:23:01.837Z,9.73
2023-04-12T01:25:40.529Z,6.90
2023-04-12T01:28:12.964Z,7.70
2023-04-12T01:30:43.495Z,7.43
2023-04-12T01:33:13.581Z,8.80
2023-04-12T01:35:42.710Z,7.37
2023-04-12T01:38:11.767Z,7.83
2023-04-12T01:40:40.953Z,7.33
2023-04-12T01:43:11.977Z,6.93
2023-04-12T01:45:40.593Z,6.50
2023-04-12T01:48:10.804Z,7.67
2023-04-12T01:50:46.073Z,7.20
2023-04-12T01:53:17.908Z,7.57
2023-04-12T01:55:47.065Z,7.07
2023-04-12T01:58:22.371Z,8.40
2023-04-12T02:00:52.519Z,8.20
2023-04-12T02:03:23.657Z,8.37
2023-04-12T02:05:54.099Z,8.27
2023-04-12T02:08:22.875Z,7.47
2023-04-12T02:10:51.449Z,8.23
2023-04-12T02:13:20.941Z,8.77
2023-04-12T02:15:49.696Z,8.43
2023-04-12T02:18:18.113Z,7.60
2023-04-12T02:20:46.635Z,8.33
2023-04-12T02:23:14.844Z,7.93
2023-04-12T02:25:44.272Z,11.03
2023-04-12T02:28:12.336Z,10.60
2023-04-12T02:30:42.621Z,8.57
2023-04-12T02:33:12.021Z,9.40
2023-04-12T02:35:40.507Z,10.30
2023-04-12T02:38:09.286Z,7.03
2023-04-12T02:40:40.884Z,7.43
2023-04-12T02:43:09.288Z,7.17
2023-04-12T02:45:37.573Z,8.10
2023-04-12T02:48:07.458Z,9.00
2023-04-12T02:50:35.693Z,8.43
2023-04-12T02:53:03.823Z,6.63
2023-04-12T02:55:31.964Z,6.77
2023-04-12T02:58:00.275Z,7.00
2023-04-12T03:00:28.406Z,7.27
2023-04-12T03:02:59.133Z,7.53
2023-04-12T03:05:28.721Z,8.17
2023-04-12T03:07:56.912Z,7.67
2023-04-12T03:10:25.149Z,10.70
2023-04-12T03:12:53.471Z,7.80
2023-04-12T03:15:23.569Z,9.07
2023-04-12T03:17:51.876Z,8.33
2023-04-12T03:20:20.578Z,6.80
2023-04-12T03:22:50.033Z,7.80
2023-04-12T03:25:18.769Z,9.13
2023-04-12T03:27:47.607Z,6.57
2023-04-12T03:30:15.902Z,8.67
2023-04-12T03:32:44.192Z,8.23
2023-04-12T03:35:12.850Z,7.80
2023-04-12T03:37:44.106Z,6.53
2023-04-12T03:40:14.600Z,8.07
2023-04-12T03:42:42.701Z,9.07
2023-04-12T03:45:12.396Z,9.57
2023-04-12T03:47:40.769Z,7.80
2023-04-12T03:50:12.284Z,7.43
2023-04-12T03:52:40.967Z,9.40
2023-04-12T03:55:10.067Z,11.67
2023-04-12T03:57:39.563Z,9.90
2023-04-12T04:00:09.999Z,8.23
2023-04-12T04:02:38.664Z,8.07
2023-04-12T04:05:07.398Z,8.63
2023-04-12T04:07:36.747Z,7.00
2023-04-12T04:10:06.445Z,14.27
2023-04-12T04:12:34.549Z,8.57
2023-04-12T04:15:03.957Z,8.40
2023-04-12T04:17:32.037Z,9.93
2023-04-12T04:20:00.237Z,11.50
2023-04-12T04:22:29.565Z,10.00
2023-04-12T04:24:58.461Z,8.03
2023-04-12T04:27:30.516Z,11.60
2023-04-12T04:29:59.663Z,10.43
2023-04-12T04:32:29.636Z,10.03
2023-04-12T04:35:00.075Z,9.57
2023-04-12T04:37:28.180Z,10.07
2023-04-12T04:39:56.513Z,8.53
2023-04-12T04:42:24.756Z,10.20
2023-04-12T04:45:00.538Z,7.87
2023-04-12T04:47:32.974Z,9.17
2023-04-12T04:50:02.208Z,11.00
2023-04-12T04:52:30.780Z,11.13
2023-04-12T04:54:58.851Z,8.70
2023-04-12T04:57:27.898Z,12.70
2023-04-12T04:59:56.298Z,15.53
2023-04-12T05:02:24.552Z,11.23
2023-04-12T05:04:56.528Z,16.30
2023-04-12T05:07:28.494Z,12.37
2023-04-12T05:09:56.604Z,11.03
2023-04-12T05:12:24.834Z,11.13
2023-04-12T05:14:53.007Z,10.47
2023-04-12T05:17:21.353Z,11.83
2023-04-12T05:19:49.582Z,14.43
2023-04-12T05:22:20.641Z,12.30
2023-04-12T05:24:48.742Z,15.27
2023-04-12T05:27:17.242Z,18.03
2023-04-12T05:29:45.416Z,13.40
2023-04-12T05:32:13.544Z,13.33
2023-04-12T05:34:42.463Z,14.23
2023-04-12T05:37:15.488Z,12.07
2023-04-12T05:39:45.993Z,16.33
2023-04-12T05:42:14.070Z,12.43
2023-04-12T05:44:42.114Z,14.57
2023-04-12T05:47:10.463Z,14.57
2023-04-12T05:49:38.634Z,16.83
2023-04-12T05:52:08.284Z,13.23
2023-04-12T05:54:36.615Z,16.13
2023-04-12T05:57:06.548Z,14.30
2023-04-12T05:59:34.723Z,13.80
2023-04-12T06:02:02.997Z,13.37
2023-04-12T06:04:46.610Z,17.23
2023-04-12T06:07:19.349Z,15.43
2023-04-12T06:09:47.496Z,16.53
2023-04-12T06:12:17.345Z,14.13
2023-04-12T06:14:45.487Z,15.13
2023-04-12T06:17:13.702Z,16.20
2023-04-12T06:19:41.920Z,17.03
2023-04-12T06:22:10.539Z,16.73
2023-04-12T06:24:38.630Z,18.70
2023-04-12T06:27:06.755Z,17.00
2023-04-12T06:29:36.392Z,15.87
2023-04-12T06:32:05.230Z,13.77
2023-04-12T06:34:34.528Z,15.10
2023-04-12T06:37:03.173Z,18.40
2023-04-12T06:39:31.341Z,16.67
2023-04-12T06:41:59.666Z,16.73
2023-04-12T06:44:28.081Z,18.27
2023-04-12T06:46:59.205Z,14.77
2023-04-12T06:49:27.739Z,13.93
2023-04-12T06:51:59.127Z,18.00
2023-04-12T06:54:27.372Z,12.17
2023-04-12T06:56:56.597Z,12.63
2023-04-12T06:59:25.160Z,13.20
2023-04-12T07:01:53.596Z,13.83
2023-04-12T07:04:23.709Z,19.70
2023-04-12T07:06:51.980Z,10.53
2023-04-12T07:09:20.869Z,11.03
2023-04-12T07:11:52.484Z,12.43
2023-04-12T07:14:20.610Z,11.37
2023-04-12T07:16:48.983Z,13.07
2023-04-12T07:19:17.616Z,7.67
2023-04-12T07:21:47.346Z,10.43
2023-04-12T07:24:15.717Z,10.33
2023-04-12T07:26:43.869Z,11.93
2023-04-12T07:29:12.110Z,15.70
2023-04-12T07:31:40.162Z,13.77
2023-04-12T07:34:08.428Z,14.07
2023-04-12T07:36:37.224Z,5.43
2023-04-12T07:39:06.849Z,5.40
2023-04-12T07:41:34.919Z,8.20
2023-04-12T07:44:03.262Z,2.40
2023-04-12T07:46:31.449Z,4.17
2023-04-12T07:49:00.140Z,12.17
2023-04-12T07:51:28.206Z,7.93
2023-04-12T07:53:56.710Z,17.27
2023-04-12T07:56:26.547Z,3.13
2023-04-12T07:58:55.326Z,6.80
2023-04-12T08:01:23.395Z,1.93
2023-04-12T08:03:51.804Z,6.07
2023-04-12T08:06:20.144Z,3.97
2023-04-12T08:08:48.211Z,6.30
2023-04-12T08:11:16.344Z,7.57
2023-04-12T08:13:46.563Z,11.02
2023-04-12T08:16:14.921Z,7.60
2023-04-12T08:18:43.083Z,7.47
2023-04-12T08:21:11.784Z,5.97
2023-04-12T08:23:39.960Z,8.68
2023-04-12T08:26:08.101Z,7.77
2023-04-12T08:28:36.855Z,8.10
2023-04-12T08:31:08.649Z,11.00
2023-04-12T08:33:36.990Z,5.40
2023-04-12T08:36:06.203Z,6.63
2023-04-12T08:38:44.834Z,7.72
2023-04-12T08:41:15.024Z,7.97
2023-04-12T08:43:46.416Z,6.63
2023-04-12T08:46:17.243Z,7.80
2023-04-12T08:48:47.585Z,14.97
2023-04-12T08:51:17.664Z,6.68
2023-04-12T08:53:45.952Z,5.82
2023-04-12T08:56:15.558Z,8.73
2023-04-12T08:58:49.191Z,5.82
2023-04-12T09:01:20.117Z,6.45
2023-04-12T09:03:48.409Z,7.65
2023-04-12T09:06:16.918Z,6.03
2023-04-12T09:08:56.852Z,8.53
2023-04-12T09:11:26.890Z,14.70
2023-04-12T09:13:56.507Z,10.85
2023-04-12T09:16:40.354Z,8.03
2023-04-12T09:19:10.251Z,9.13
2023-04-12T09:21:52.906Z,9.00
2023-04-12T09:24:24.210Z,6.28
2023-04-12T09:27:03.311Z,5.97
2023-04-12T09:29:31.854Z,7.60
2023-04-12T09:32:03.442Z,6.80
2023-04-12T09:34:32.161Z,5.78
2023-04-12T09:37:00.520Z,6.87
2023-04-12T09:39:38.799Z,4.60
2023-04-12T09:42:21.422Z,9.65
2023-04-12T09:44:59.686Z,6.25
2023-04-12T09:47:40.401Z,14.32
2023-04-12T09:50:10.227Z,5.45
2023-04-12T09:52:39.480Z,7.20
2023-04-12T09:55:11.495Z,15.32
2023-04-12T09:57:45.553Z,9.60
2023-04-12T10:00:17.902Z,5.25
2023-04-12T10:02:51.847Z,7.90
2023-04-12T10:05:22.245Z,7.28
2023-04-12T10:07:51.143Z,5.47
2023-04-12T10:10:22.304Z,4.80
2023-04-12T10:12:51.345Z,4.60
2023-04-12T10:15:21.693Z,3.35
2023-04-12T10:17:53.943Z,7.75
2023-04-12T10:20:27.051Z,4.35
2023-04-12T10:22:59.754Z,4.85
2023-04-12T10:25:31.158Z,5.20
2023-04-12T10:28:15.837Z,5.30
2023-04-12T10:30:44.134Z,3.75
2023-04-12T10:33:27.217Z,3.65
2023-04-12T10:36:03.120Z,3.92
2023-04-12T10:38:37.513Z,6.93
2023-04-12T10:41:17.365Z,2.33
2023-04-12T10:43:46.731Z,7.95
2023-04-12T10:46:49.735Z,5.18
2023-04-12T10:49:19.711Z,5.82
2023-04-12T10:52:16.195Z,5.47
2023-04-12T10:54:44.450Z,6.55
2023-04-12T10:57:47.420Z,2.72
2023-04-12T11:00:16.965Z,4.45
2023-04-12T11:03:09.938Z,1.65
2023-04-12T11:06:12.589Z,20.30
2023-04-12T11:08:48.800Z,15.55
2023-04-12T11:11:21.095Z,16.17
2023-04-12T11:13:49.406Z,3.70
2023-04-12T11:16:17.710Z,2.95
2023-04-12T11:18:49.412Z,5.25
2023-04-12T11:21:20.611Z,1.83
2023-04-12T11:23:50.297Z,4.27
2023-04-12T11:26:22.211Z,1.70
2023-04-12T11:28:53.349Z,3.33
2023-04-12T11:31:23.336Z,2.10
2023-04-12T11:33:51.681Z,5.63
2023-04-12T11:36:21.529Z,6.35
2023-04-12T11:38:50.408Z,5.47
2023-04-12T11:41:18.744Z,3.53
2023-04-12T11:43:47.708Z,4.63
2023-04-12T11:46:16.589Z,8.30
2023-04-12T11:48:47.756Z,7.63
2023-04-12T11:51:25.614Z,2.03
2023-04-12T11:53:57.515Z,3.38
2023-04-12T11:56:26.563Z,7.05
2023-04-12T11:58:55.261Z,7.85
2023-04-12T12:01:24.817Z,4.13
2023-04-12T12:03:53.264Z,2.55
2023-04-12T12:06:24.470Z,6.30
2023-04-12T12:08:53.717Z,4.57
2023-04-12T12:11:23.566Z,3.03
2023-04-12T12:13:54.177Z,4.15
2023-04-12T12:16:27.628Z,2.25
2023-04-12T12:18:56.738Z,3.95
2023-04-12T12:21:27.457Z,5.22
2023-04-12T12:23:58.033Z,3.28
2023-04-12T12:26:29.386Z,2.47
2023-04-12T12:29:00.564Z,5.85
2023-04-12T12:31:29.551Z,1.45
2023-04-12T12:33:59.252Z,3.10
2023-04-12T12:36:36.211Z,3.47
2023-04-12T12:39:07.011Z,5.68
2023-04-12T12:41:35.655Z,1.40
2023-04-12T12:44:03.926Z,2.88
2023-04-12T12:46:50.549Z,3.78
2023-04-12T12:49:20.516Z,1.70
2023-04-12T12:51:51.486Z,3.67
2023-04-12T12:54:32.092Z,6.03
2023-04-12T12:57:04.861Z,3.53
2023-04-12T12:59:33.098Z,1.52
2023-04-12T13:02:01.413Z,5.95
2023-04-12T13:04:30.283Z,4.97
2023-04-12T13:06:59.934Z,2.40
2023-04-12T13:09:28.090Z,2.58
2023-04-12T13:11:58.350Z,1.63
2023-04-12T13:14:26.630Z,9.80
2023-04-12T13:16:55.326Z,8.85
2023-04-12T13:19:23.708Z,1.63
2023-04-12T13:21:53.227Z,2.55
2023-04-12T13:24:22.960Z,7.75
2023-04-12T13:26:51.805Z,2.85
2023-04-12T13:29:19.951Z,5.55
2023-04-12T13:31:48.267Z,4.55
2023-04-12T13:34:17.290Z,4.22
2023-04-12T13:36:45.642Z,6.75
2023-04-12T13:39:13.869Z,20.90
2023-04-12T13:41:43.756Z,3.38
2023-04-12T13:44:11.850Z,1.48
2023-04-12T13:46:40.495Z,6.78
2023-04-12T13:49:08.566Z,2.25
2023-04-12T13:51:36.777Z,4.13
2023-04-12T13:54:06.373Z,8.18
2023-04-12T13:56:34.513Z,6.03
2023-04-12T13:59:04.919Z,1.27
2023-04-12T14:01:33.557Z,3.55
2023-04-12T14:04:01.892Z,1.77
2023-04-12T14:06:30.318Z,3.60
2023-04-12T14:08:59.264Z,2.08
2023-04-12T14:11:27.846Z,2.08
2023-04-12T14:13:56.189Z,3.33
2023-04-12T14:16:25.783Z,2.13
2023-04-12T14:18:54.134Z,3.78
2023-04-12T14:21:25.309Z,2.58
2023-04-12T14:23:54.698Z,3.03
2023-04-12T14:26:22.890Z,2.20
2023-04-12T14:28:51.840Z,1.73
2023-04-12T14:31:19.990Z,2.75
2023-04-12T14:33:49.502Z,3.60
2023-04-12T14:36:17.704Z,3.67
2023-04-12T14:38:48.614Z,3.85
2023-04-12T14:41:17.145Z,3.33
2023-04-12T14:43:46.129Z,2.70
2023-04-12T14:46:14.541Z,3.58
2023-04-12T14:48:42.668Z,2.90
2023-04-12T14:51:12.191Z,6.25
2023-04-12T14:53:42.713Z,3.45
2023-04-12T14:56:23.836Z,3.70
2023-04-12T14:58:54.705Z,4.70
2023-04-12T15:01:23.622Z,2.55
2023-04-12T15:03:52.498Z,8.05
2023-04-12T15:06:26.171Z,2.33
2023-04-12T15:08:55.397Z,2.75
2023-04-12T15:11:26.725Z,1.33
2023-04-12T15:13:56.238Z,1.42
2023-04-12T15:16:24.480Z,1.77
2023-04-12T15:18:52.817Z,4.97
2023-04-12T15:21:23.074Z,1.55
2023-04-12T15:23:51.269Z,3.13
2023-04-12T15:26:19.358Z,2.53
2023-04-12T15:28:47.507Z,1.15
2023-04-12T15:31:15.881Z,1.95
2023-04-12T15:33:44.246Z,3.78
2023-04-12T15:36:13.060Z,1.50
2023-04-12T15:38:44.815Z,1.63
2023-04-12T15:41:12.954Z,4.32
2023-04-12T15:43:42.181Z,3.20
2023-04-12T15:46:10.386Z,1.55
2023-04-12T15:48:38.960Z,1.77
2023-04-12T15:51:07.623Z,2.80
2023-04-12T15:53:35.989Z,3.60
2023-04-12T15:56:06.076Z,1.10
2023-04-12T15:58:34.273Z,2.15
2023-04-12T16:01:02.667Z,5.43
2023-04-12T16:03:31.739Z,2.50
2023-04-12T16:05:59.948Z,8.65
2023-04-12T16:08:28.630Z,1.73
2023-04-12T16:10:56.858Z,3.05
2023-04-12T16:13:26.399Z,2.33
2023-04-12T16:15:54.662Z,2.63
2023-04-12T16:18:23.020Z,2.67
2023-04-12T16:20:52.640Z,3.95
2023-04-12T16:23:21.071Z,3.63
2023-04-12T16:25:49.367Z,1.40
2023-04-12T16:28:18.167Z,1.92
2023-04-12T16:30:47.982Z,4.47
2023-04-12T16:33:16.599Z,1.73
2023-04-12T16:35:44.876Z,3.43
2023-04-12T16:38:16.498Z,4.57
2023-04-12T16:40:45.821Z,3.10
2023-04-12T16:43:14.114Z,3.15
2023-04-12T16:45:45.785Z,2.40
2023-04-12T16:48:15.893Z,1.42
2023-04-12T16:50:47.448Z,2.85
2023-04-12T16:53:16.454Z,4.20
2023-04-12T16:55:46.739Z,2.20
2023-04-12T16:58:15.556Z,6.37
2023-04-12T17:00:44.026Z,2.42
2023-04-12T17:03:14.428Z,5.73
2023-04-12T17:05:42.719Z,3.60
2023-04-12T17:08:11.321Z,5.37
2023-04-12T17:10:39.561Z,4.93
2023-04-12T17:13:08.262Z,1.73
2023-04-12T17:15:36.506Z,2.90
2023-04-12T17:18:06.635Z,2.43
2023-04-12T17:20:36.978Z,2.43
2023-04-12T17:23:06.772Z,3.63
2023-04-12T17:25:36.940Z,5.50
2023-04-12T17:28:05.179Z,2.43
2023-04-12T17:30:33.869Z,2.20
2023-04-12T17:33:02.232Z,3.97
2023-04-12T17:35:30.832Z,5.00
2023-04-12T17:38:00.448Z,2.00
2023-04-12T17:40:28.882Z,5.37
2023-04-12T17:42:57.611Z,4.13
2023-04-12T17:45:26.456Z,2.43
2023-04-12T17:47:54.924Z,4.37
2023-04-12T17:50:23.593Z,2.47
2023-04-12T17:52:51.854Z,5.03
2023-04-12T17:55:23.725Z,3.60
2023-04-12T17:57:53.145Z,3.90
2023-04-12T18:00:23.931Z,2.93
2023-04-12T18:02:52.846Z,3.50
2023-04-12T18:05:21.326Z,4.83
2023-04-12T18:07:49.881Z,5.37
2023-04-12T18:10:21.410Z,3.80
2023-04-12T18:12:51.342Z,4.20
2023-04-12T18:15:19.883Z,3.57
2023-04-12T18:17:48.075Z,9.67
2023-04-12T18:20:16.876Z,2.77
2023-04-12T18:22:45.881Z,3.50
2023-04-12T18:25:14.256Z,3.87
2023-04-12T18:27:42.694Z,4.27
2023-04-12T18:30:14.754Z,7.67
2023-04-12T18:32:43.114Z,5.57
2023-04-12T18:35:11.401Z,3.47
2023-04-12T18:37:41.070Z,4.90
2023-04-12T18:40:10.607Z,7.13
2023-04-12T18:42:38.834Z,5.73
2023-04-12T18:45:09.187Z,7.60
2023-04-12T18:47:40.216Z,6.10
2023-04-12T18:50:10.245Z,7.93
2023-04-12T18:52:38.931Z,5.57
2023-04-12T18:55:08.220Z,6.20
2023-04-12T18:57:36.449Z,11.03
2023-04-12T19:00:10.539Z,6.90
2023-04-12T19:02:40.208Z,4.60
2023-04-12T19:05:10.380Z,6.43
2023-04-12T19:07:39.068Z,6.27
2023-04-12T19:10:08.712Z,7.80
2023-04-12T19:12:36.986Z,9.87
2023-04-12T19:15:07.202Z,7.30
2023-04-12T19:17:38.821Z,14.50
2023-04-12T19:20:11.026Z,5.93
2023-04-12T19:22:39.419Z,6.90
2023-04-12T19:25:08.943Z,6.80
2023-04-12T19:27:37.701Z,6.17
2023-04-12T19:30:07.280Z,6.20
2023-04-12T19:32:35.491Z,6.00
2023-04-12T19:35:03.589Z,6.93
2023-04-12T19:37:34.360Z,5.47
2023-04-12T19:40:02.600Z,8.23
2023-04-12T19:42:30.801Z,6.00
2023-04-12T19:45:00.748Z,5.60
2023-04-12T19:47:29.108Z,11.50
2023-04-12T19:49:58.299Z,10.40
2023-04-12T19:52:28.496Z,6.03
2023-04-12T19:54:59.012Z,3.60
2023-04-12T19:57:28.901Z,6.97
2023-04-12T19:59:57.004Z,4.87
2023-04-12T20:02:25.835Z,4.63
2023-04-12T20:04:54.255Z,3.77
2023-04-12T20:07:22.484Z,6.00
2023-04-12T20:09:50.833Z,4.07
2023-04-12T20:12:21.500Z,3.30
2023-04-12T20:14:50.316Z,3.23
2023-04-12T20:17:18.687Z,2.70
2023-04-12T20:19:46.995Z,4.30
2023-04-12T20:22:15.424Z,3.23
2023-04-12T20:24:43.631Z,4.47
2023-04-12T20:27:16.850Z,5.73
2023-04-12T20:29:46.759Z,5.83
2023-04-12T20:32:15.820Z,7.00
2023-04-12T20:34:46.840Z,4.17
2023-04-12T20:37:15.847Z,4.40
2023-04-12T20:39:44.805Z,4.93
2023-04-12T20:42:16.153Z,4.77
2023-04-12T20:44:46.000Z,3.93
2023-04-12T20:47:14.538Z,5.97
2023-04-12T20:49:43.446Z,6.20
2023-04-12T20:52:11.747Z,4.10
2023-04-12T20:54:41.725Z,3.90
2023-04-12T20:57:10.648Z,3.67
2023-04-12T20:59:39.512Z,13.23
2023-04-12T21:02:10.665Z,5.43
2023-04-12T21:04:39.714Z,7.90
2023-04-12T21:07:07.965Z,2.90
2023-04-12T21:09:37.107Z,5.10
2023-04-12T21:12:07.407Z,4.23
2023-04-12T21:14:37.757Z,2.60
2023-04-12T21:17:07.346Z,4.27
2023-04-12T21:19:39.428Z,3.83
2023-04-12T21:22:08.493Z,4.17
2023-04-12T21:24:38.575Z,3.37
2023-04-12T21:27:10.634Z,3.37
2023-04-12T21:29:41.533Z,4.00
2023-04-12T21:32:10.822Z,3.47
2023-04-12T21:34:40.405Z,3.93
2023-04-12T21:37:09.812Z,3.77
2023-04-12T21:39:39.357Z,3.53
2023-04-12T21:42:07.921Z,3.70
2023-04-12T21:44:36.283Z,5.13
2023-04-12T21:47:05.036Z,3.67
2023-04-12T21:49:34.438Z,2.70
2023-04-12T21:52:04.382Z,3.90
2023-04-12T21:54:36.781Z,5.00
2023-04-12T21:57:05.751Z,4.13
2023-04-12T21:59:33.954Z,5.00
2023-04-12T22:02:02.220Z,3.50
2023-04-12T22:04:30.611Z,4.00
2023-04-12T22:06:58.674Z,3.93
2023-04-12T22:09:28.551Z,5.17
2023-04-12T22:11:56.916Z,3.97
2023-04-12T22:14:25.260Z,4.60
2023-04-12T22:16:53.622Z,6.50
2023-04-12T22:19:22.055Z,6.83
2023-04-12T22:21:50.083Z,3.80
2023-04-12T22:24:18.094Z,4.57
2023-04-12T22:26:47.599Z,5.93
2023-04-12T22:29:17.578Z,4.70
2023-04-12T22:31:47.083Z,3.47
2023-04-12T22:34:15.458Z,5.40
2023-04-12T22:36:45.123Z,2.60
2023-04-12T22:39:15.525Z,3.87
2023-04-12T22:41:49.092Z,3.53
2023-04-12T22:44:18.842Z,3.10
2023-04-12T22:46:48.485Z,3.40
2023-04-12T22:49:17.436Z,4.97
2023-04-12T22:51:46.448Z,2.93
2023-04-12T22:54:14.664Z,5.67
2023-04-12T22:56:45.478Z,4.03
2023-04-12T22:59:14.455Z,5.40
2023-04-12T23:01:44.706Z,4.20
2023-04-12T23:04:13.015Z,3.37
2023-04-12T23:06:42.491Z,5.93
2023-04-12T23:09:12.579Z,4.03
2023-04-12T23:11:41.979Z,2.90
2023-04-12T23:14:10.616Z,4.83
2023-04-12T23:16:44.469Z,3.60
2023-04-12T23:19:15.002Z,3.53
2023-04-12T23:21:43.052Z,3.77
2023-04-12T23:24:12.225Z,4.33
2023-04-12T23:26:40.557Z,2.80
2023-04-12T23:29:08.740Z,3.43
2023-04-12T23:31:36.954Z,3.07
2023-04-12T23:34:06.234Z,3.03
2023-04-12T23:36:35.958Z,3.93
2023-04-12T23:39:07.261Z,4.43
2023-04-12T23:41:35.542Z,4.87
2023-04-12T23:44:03.643Z,4.10
2023-04-12T23:46:32.275Z,3.80
2023-04-12T23:49:00.420Z,3.63
2023-04-12T23:51:29.512Z,3.90
2023-04-12T23:53:59.225Z,4.17
2023-04-12T23:56:27.492Z,3.97
2023-04-12T23:58:55.888Z,3.80
